Time;durP1;ratioP1;P1;durP2;ratioP2;P2;SDS_P1;SDS_P2;PMS_P1;PMS_P2;Temp;Humidity;BMP_temperature;BMP_pressure;BME280_temperature;BME280_humidity;BME280_pressure;Samples;Min_cycle;Max_cycle;Signal;HPM_P1;HPM_P2
2023/10/08 00:00:38;;;;;;;9.60;3.38;;;;;;;15.56;50.13;100657.34;4930164;29;20533;-80
2023/10/08 00:02:45;;;;;;;10.37;3.37;;;;;;;15.47;50.06;100653.09;4896019;29;20040;-80
2023/10/08 00:05:10;;;;;;;10.60;3.53;;;;;;;15.34;50.43;100653.28;4896663;29;20100;-80
2023/10/08 00:07:35;;;;;;;8.77;3.03;;;;;;;15.27;50.55;100649.00;4896133;29;20616;-80
2023/10/08 00:10:02;;;;;;;8.80;3.03;;;;;;;15.24;50.63;100657.00;4896263;29;20099;-80
2023/10/08 00:12:28;;;;;;;10.75;3.42;;;;;;;15.25;50.73;100649.91;4896466;29;20033;-80
2023/10/08 00:14:54;;;;;;;9.48;3.20;;;;;;;15.24;50.79;100657.00;4896099;29;20718;-81
2023/10/08 00:17:20;;;;;;;9.60;3.30;;;;;;;15.24;50.41;100651.72;4895943;29;20354;-80
2023/10/08 00:19:47;;;;;;;10.18;3.00;;;;;;;15.20;50.57;100650.88;4896250;29;20048;-80
2023/10/08 00:22:13;;;;;;;8.43;3.03;;;;;;;15.17;50.72;100656.25;4896138;29;20462;-79
2023/10/08 00:24:42;;;;;;;9.18;3.25;;;;;;;15.18;50.83;100673.00;4896103;29;20032;-79
2023/10/08 00:27:08;;;;;;;9.38;3.00;;;;;;;15.17;50.77;100668.59;4910491;29;20058;-80
2023/10/08 00:29:35;;;;;;;13.33;3.77;;;;;;;15.11;50.74;100666.97;4914716;29;20032;-79
2023/10/08 00:32:11;;;;;;;11.88;4.22;;;;;;;15.09;51.00;100674.06;4914440;29;20063;-81
2023/10/08 00:34:41;;;;;;;12.07;4.55;;;;;;;15.07;51.22;100675.84;4914691;29;20100;-79
2023/10/08 00:37:08;;;;;;;9.27;3.72;;;;;;;15.02;51.46;100667.09;4914596;29;20404;-80
2023/10/08 00:39:37;;;;;;;14.15;3.92;;;;;;;14.87;51.80;100663.78;4914755;29;20110;-80
2023/10/08 00:42:04;;;;;;;10.10;3.43;;;;;;;14.64;52.20;100651.72;4914730;29;20111;-80
2023/10/08 00:44:30;;;;;;;11.70;3.60;;;;;;;14.52;52.09;100659.84;4929609;29;20035;-81
2023/10/08 00:46:56;;;;;;;10.82;3.58;;;;;;;14.44;52.54;100664.38;4932410;29;20099;-79
2023/10/08 00:49:38;;;;;;;10.33;3.60;;;;;;;14.47;52.62;100664.34;4915330;29;20438;-80
2023/10/08 00:54:48;;;;;;;8.73;3.15;;;;;;;14.56;52.34;100656.25;4914577;29;20068;-81
2023/10/08 00:57:20;;;;;;;12.25;3.30;;;;;;;14.56;52.55;100655.38;4917103;29;20020;-81
2023/10/08 00:59:52;;;;;;;10.38;3.33;;;;;;;14.55;52.61;100661.59;4914665;29;20071;-79
2023/10/08 01:02:19;;;;;;;12.33;3.23;;;;;;;14.49;52.72;100658.13;4913994;29;20028;-80
2023/10/08 01:04:45;;;;;;;9.02;3.33;;;;;;;14.43;52.57;100646.72;4914341;29;20049;-80
2023/10/08 01:07:18;;;;;;;12.07;3.15;;;;;;;14.40;52.92;100647.66;4913971;29;20242;-81
2023/10/08 01:09:49;;;;;;;12.48;3.03;;;;;;;14.39;52.85;100650.34;4913826;29;20076;-80
2023/10/08 01:12:27;;;;;;;10.45;2.75;;;;;;;14.42;52.95;100634.38;4913771;29;20280;-80
2023/10/08 01:14:53;;;;;;;9.00;2.90;;;;;;;14.41;52.69;100633.50;4914043;29;20028;-81
2023/10/08 01:17:31;;;;;;;10.18;3.08;;;;;;;14.42;53.00;100629.09;4913614;29;20024;-81
2023/10/08 01:20:05;;;;;;;10.30;2.92;;;;;;;14.41;52.85;100637.94;4914029;29;20080;-79
2023/10/08 01:22:30;;;;;;;11.65;2.70;;;;;;;14.39;52.96;100629.13;4913806;29;20024;-80
2023/10/08 01:24:56;;;;;;;8.23;2.87;;;;;;;14.37;52.90;100630.94;4913674;29;20120;-80
2023/10/08 01:27:23;;;;;;;10.80;2.90;;;;;;;14.32;52.80;100631.84;4913473;29;20039;-79
2023/10/08 01:29:50;;;;;;;11.37;3.20;;;;;;;14.25;53.25;100627.53;4913657;29;20512;-80
2023/10/08 01:32:16;;;;;;;13.27;4.50;;;;;;;14.22;53.39;100627.59;4913249;29;20048;-79
2023/10/08 01:34:45;;;;;;;12.02;3.83;;;;;;;14.19;53.36;100619.69;4913681;29;20458;-81
2023/10/08 01:37:18;;;;;;;10.80;3.08;;;;;;;14.13;53.39;100625.06;4913589;29;20506;-80
2023/10/08 01:39:50;;;;;;;10.45;3.03;;;;;;;14.05;53.61;100631.31;4913724;29;20091;-81
2023/10/08 01:42:20;;;;;;;11.10;3.30;;;;;;;14.04;53.55;100626.06;4913658;29;20032;-80
2023/10/08 01:44:47;;;;;;;13.95;4.05;;;;;;;14.03;53.40;100627.81;4930712;29;20059;-80
2023/10/08 01:47:14;;;;;;;13.93;3.70;;;;;;;14.00;53.67;100630.50;4914443;29;20056;-80
2023/10/08 01:49:39;;;;;;;12.00;3.30;;;;;;;13.98;53.56;100631.41;4913405;29;20032;-79
2023/10/08 01:52:13;;;;;;;9.00;2.97;;;;;;;13.95;53.75;100629.69;4912095;29;20145;-80
2023/10/08 01:54:38;;;;;;;12.85;4.22;;;;;;;13.92;53.71;100635.88;4913383;29;20560;-80
2023/10/08 01:57:04;;;;;;;13.93;3.90;;;;;;;13.88;53.86;100636.81;4927347;29;20040;-80
2023/10/08 01:59:31;;;;;;;9.77;3.20;;;;;;;13.72;54.28;100628.19;4932076;29;20035;-80
2023/10/08 02:01:57;;;;;;;11.02;3.47;;;;;;;13.67;54.38;100634.41;4932245;29;20036;-80
2023/10/08 02:04:22;;;;;;;13.25;3.75;;;;;;;13.67;54.54;100642.34;4901566;29;20394;-79
2023/10/08 02:06:47;;;;;;;11.57;3.33;;;;;;;13.66;54.43;100636.22;4896270;29;20563;-80
2023/10/08 02:09:14;;;;;;;10.77;3.20;;;;;;;13.69;54.70;100637.91;4913103;29;20036;-80
2023/10/08 02:11:51;;;;;;;11.25;3.55;;;;;;;13.65;55.19;100637.09;4896006;29;20032;-80
2023/10/08 02:14:18;;;;;;;9.07;2.80;;;;;;;13.64;54.58;100635.34;4913047;29;20119;-80
2023/10/08 02:16:44;;;;;;;12.33;3.40;;;;;;;13.62;54.63;100631.81;4913075;29;20527;-79
2023/10/08 02:19:13;;;;;;;9.25;2.90;;;;;;;13.60;54.80;100633.59;4912654;29;20032;-80
2023/10/08 02:21:41;;;;;;;10.07;2.97;;;;;;;13.56;54.59;100640.72;4913005;29;20649;-79
2023/10/08 02:24:08;;;;;;;8.23;2.75;;;;;;;13.54;54.84;100644.25;4912902;29;20060;-79
2023/10/08 02:26:37;;;;;;;9.05;2.88;;;;;;;13.51;54.76;100636.34;4912513;29;20040;-81
2023/10/08 02:29:06;;;;;;;7.67;3.00;;;;;;;13.41;54.97;100633.78;4913127;29;20203;-80
2023/10/08 02:31:31;;;;;;;9.90;3.00;;;;;;;13.31;55.24;100630.34;4895700;29;20028;-81
2023/10/08 02:33:58;;;;;;;9.10;3.23;;;;;;;13.29;54.92;100642.72;4912828;29;20043;-79
2023/10/08 02:36:24;;;;;;;9.27;3.10;;;;;;;13.30;55.01;100633.88;4895942;29;20456;-80
2023/10/08 02:38:49;;;;;;;9.48;3.13;;;;;;;13.28;55.44;100632.13;4895662;29;20194;-80
2023/10/08 02:41:18;;;;;;;10.90;3.47;;;;;;;13.30;55.16;100622.41;4912650;29;20044;-80
2023/10/08 02:43:44;;;;;;;9.07;2.72;;;;;;;13.28;55.30;100616.25;4921883;29;20105;-80
2023/10/08 02:46:14;;;;;;;9.30;3.00;;;;;;;13.27;55.35;100625.09;4932067;29;20043;-79
2023/10/08 02:48:40;;;;;;;8.20;3.03;;;;;;;13.23;55.24;100618.94;4919062;29;20036;-80
2023/10/08 02:51:14;;;;;;;12.68;3.25;;;;;;;13.18;55.29;100621.66;4912855;29;20103;-80
2023/10/08 02:53:42;;;;;;;7.33;2.37;;;;;;;13.15;55.51;100621.69;4912720;29;20111;-79
2023/10/08 02:56:12;;;;;;;9.07;2.80;;;;;;;13.11;55.34;100619.94;4919357;29;20067;-80
2023/10/08 02:58:39;;;;;;;7.47;2.97;;;;;;;13.09;55.43;100621.72;4931504;29;20035;-80
2023/10/08 03:01:05;;;;;;;9.52;3.03;;;;;;;13.07;55.59;100627.03;4931786;29;20042;-80
2023/10/08 03:03:32;;;;;;;8.67;3.10;;;;;;;13.04;55.38;100626.16;4925176;29;20552;-80
2023/10/08 03:05:58;;;;;;;11.68;2.90;;;;;;;13.02;55.39;100614.72;4912699;29;20121;-80
2023/10/08 03:08:23;;;;;;;12.07;3.10;;;;;;;12.98;55.82;100620.94;4912496;29;20100;-80
2023/10/08 03:11:02;;;;;;;8.53;2.87;;;;;;;12.94;55.87;100621.88;4915132;29;20036;-80
2023/10/08 03:13:28;;;;;;;9.32;3.20;;;;;;;12.91;55.61;100623.66;4916510;29;20406;-79
2023/10/08 03:18:41;;;;;;;10.38;3.20;;;;;;;12.76;55.94;100623.75;4915579;29;20449;-80
2023/10/08 03:22:10;;;;;;;9.43;3.30;;;;;;;12.72;56.12;100630.81;4915823;29;20036;-80
2023/10/08 03:24:06;;;;;;;9.63;2.85;;;;;;;12.68;56.28;100625.59;4903206;29;20036;-81
2023/10/08 03:29:00;;;;;;;9.23;2.80;;;;;;;12.69;56.21;100629.97;4916388;29;20188;-79
2023/10/08 03:32:13;;;;;;;9.45;3.10;;;;;;;12.68;56.09;100629.09;4916004;29;20821;-80
2023/10/08 03:34:15;;;;;;;10.38;3.25;;;;;;;12.67;56.06;100624.69;4888520;29;20135;-80
2023/10/08 03:36:45;;;;;;;11.93;3.63;;;;;;;12.66;56.14;100629.97;4897191;29;20524;-80
2023/10/08 03:39:13;;;;;;;7.30;2.55;;;;;;;12.67;56.71;100632.63;4896662;29;20048;-79
2023/10/08 03:41:39;;;;;;;9.80;2.67;;;;;;;12.66;56.19;100624.69;4896812;29;20442;-80
2023/10/08 03:44:10;;;;;;;8.82;3.00;;;;;;;12.66;56.28;100627.31;4897057;29;20470;-79
2023/10/08 03:46:39;;;;;;;10.77;3.13;;;;;;;12.63;56.27;100623.81;4896565;29;20080;-80
2023/10/08 03:49:14;;;;;;;11.27;3.03;;;;;;;12.61;56.57;100620.31;4896489;29;20051;-79
2023/10/08 03:51:40;;;;;;;7.80;2.78;;;;;;;12.59;56.66;100632.66;4896516;29;20493;-79
2023/10/08 03:54:16;;;;;;;14.77;2.90;;;;;;;12.60;56.66;100637.06;4896574;29;20035;-80
2023/10/08 03:56:45;;;;;;;9.57;3.05;;;;;;;12.57;56.70;100645.00;4890384;29;20122;-79
2023/10/08 03:59:33;;;;;;;8.20;2.73;;;;;;;12.54;56.92;100647.66;4915290;29;20032;-80
2023/10/08 04:04:57;;;;;;;9.93;2.80;;;;;;;12.48;57.09;100653.00;4915388;29;20523;-79
2023/10/08 04:07:25;;;;;;;6.88;2.33;;;;;;;12.51;56.89;100654.72;4915545;29;20016;-79
2023/10/08 04:10:04;;;;;;;8.07;2.80;;;;;;;12.52;56.98;100654.72;4915166;29;20493;-80
2023/10/08 04:12:29;;;;;;;8.87;2.80;;;;;;;12.47;56.75;100657.38;4915132;29;20035;-79
2023/10/08 04:14:56;;;;;;;8.45;2.47;;;;;;;12.45;57.06;100650.38;4915131;29;20024;-79
2023/10/08 04:17:22;;;;;;;9.00;2.63;;;;;;;12.42;57.15;100659.19;4914713;29;20405;-79
2023/10/08 04:19:48;;;;;;;9.35;2.80;;;;;;;12.42;57.25;100659.19;4914827;29;20056;-79
2023/10/08 04:22:17;;;;;;;8.98;2.97;;;;;;;12.39;57.17;100666.22;4914958;29;20097;-79
2023/10/08 04:24:43;;;;;;;6.90;2.17;;;;;;;12.30;57.25;100665.41;4915052;29;20038;-80
2023/10/08 04:27:09;;;;;;;9.60;2.63;;;;;;;12.30;57.42;100668.03;4879867;29;20033;-79
2023/10/08 04:29:37;;;;;;;7.53;2.37;;;;;;;12.32;57.52;100671.56;4877946;29;20337;-79
2023/10/08 04:32:12;;;;;;;10.75;2.80;;;;;;;12.29;57.25;100668.94;4880800;29;20059;-80
2023/10/08 04:34:37;;;;;;;10.13;2.50;;;;;;;12.29;57.45;100673.31;4902253;29;20043;-80
2023/10/08 04:37:11;;;;;;;8.53;2.77;;;;;;;12.27;57.51;100676.00;4914736;29;20032;-80
2023/10/08 04:39:39;;;;;;;9.05;2.60;;;;;;;12.25;57.66;100682.16;4914548;29;20030;-80
2023/10/08 04:42:10;;;;;;;10.50;2.60;;;;;;;12.24;57.48;100670.72;4914397;29;20031;-81
2023/10/08 04:44:40;;;;;;;9.27;2.50;;;;;;;12.28;57.60;100666.28;4930405;29;20078;-79
2023/10/08 04:47:09;;;;;;;8.85;2.85;;;;;;;12.29;57.68;100673.31;4933226;29;20028;-79
2023/10/08 04:49:45;;;;;;;10.60;3.03;;;;;;;12.26;57.69;100671.59;4914336;29;20493;-79
2023/10/08 04:52:18;;;;;;;10.20;2.58;;;;;;;12.24;57.77;100662.81;4914570;29;20036;-80
2023/10/08 04:54:51;;;;;;;11.68;3.22;;;;;;;12.23;57.70;100671.59;4914239;29;20032;-80
2023/10/08 04:57:17;;;;;;;8.47;2.60;;;;;;;12.19;57.77;100670.72;4930288;29;20252;-80
2023/10/08 04:59:43;;;;;;;8.27;2.47;;;;;;;12.17;58.00;100679.53;4933323;29;20039;-80
2023/10/08 05:12:50;;;;;;;8.33;2.70;;;;;;;11.90;59.22;100681.34;4914407;29;20035;-80
2023/10/08 05:20:40;;;;;;;10.48;3.03;;;;;;;11.71;60.32;100691.97;4916518;29;20031;-81
2023/10/08 05:23:53;;;;;;;9.30;2.83;;;;;;;11.71;60.41;100684.06;4915417;29;20090;-80
2023/10/08 05:28:36;;;;;;;8.85;2.70;;;;;;;11.71;60.30;100693.72;4913665;29;20604;-80
2023/10/08 05:31:36;;;;;;;8.05;2.60;;;;;;;11.70;60.97;100692.84;4914963;29;20123;-79
2023/10/08 05:36:34;;;;;;;10.10;2.95;;;;;;;11.67;60.17;100691.97;4913946;29;20039;-79
2023/10/08 05:39:46;;;;;;;10.43;2.67;;;;;;;11.69;60.15;100693.72;4913999;29;20087;-80
2023/10/08 05:41:51;;;;;;;10.40;2.75;;;;;;;11.71;60.21;100689.34;4905787;29;20389;-80
2023/10/08 05:49:53;;;;;;;6.88;2.50;;;;;;;11.80;59.72;100703.38;4893603;29;20040;-80
2023/10/08 05:52:26;;;;;;;9.80;2.57;;;;;;;11.82;59.58;100707.78;4913490;29;20024;-79
2023/10/08 05:55:13;;;;;;;10.60;3.05;;;;;;;11.86;59.55;100708.63;4913393;29;20103;-80
2023/10/08 05:57:40;;;;;;;8.63;2.20;;;;;;;11.85;59.68;100713.06;4932024;29;20395;-80
2023/10/08 06:07:56;;;;;;;10.52;2.90;;;;;;;11.77;59.86;100720.97;4913298;29;20043;-80
2023/10/08 06:15:51;;;;;;;10.88;2.70;;;;;;;11.72;61.20;100720.13;4913174;29;20028;-79
2023/10/08 06:18:18;;;;;;;9.33;2.47;;;;;;;11.74;60.52;100726.25;4912612;29;20500;-80
2023/10/08 06:20:45;;;;;;;11.07;2.50;;;;;;;11.78;60.28;100727.13;4913115;29;20114;-81
2023/10/08 06:23:18;;;;;;;10.05;2.83;;;;;;;11.85;60.37;100730.63;4912804;29;20032;-79
2023/10/08 06:25:46;;;;;;;9.25;2.58;;;;;;;11.92;60.29;100735.00;4905725;29;20393;-80
2023/10/08 06:28:15;;;;;;;9.75;3.10;;;;;;;11.98;59.75;100732.38;4912891;29;20083;-80
2023/10/08 06:30:41;;;;;;;9.37;2.63;;;;;;;12.04;59.83;100734.13;4912940;29;20043;-81
2023/10/08 06:33:08;;;;;;;13.25;2.80;;;;;;;12.10;59.66;100728.88;4912728;29;20048;-81
2023/10/08 06:35:33;;;;;;;9.25;2.83;;;;;;;12.14;59.93;100735.88;4912861;29;20036;-80
2023/10/08 06:38:07;;;;;;;11.40;2.90;;;;;;;12.14;60.11;100733.25;4912846;29;20033;-78
2023/10/08 06:43:21;;;;;;;10.25;2.90;;;;;;;12.09;60.72;100739.41;4916383;29;20046;-80
2023/10/08 06:45:52;;;;;;;7.63;2.42;;;;;;;12.08;60.72;100740.28;4934331;29;20028;-80
2023/10/08 06:48:18;;;;;;;9.30;2.80;;;;;;;12.03;61.56;100741.19;4926129;29;20119;-81
2023/10/08 06:50:45;;;;;;;9.73;2.97;;;;;;;12.02;61.50;100749.09;4916832;29;20024;-80
2023/10/08 06:53:13;;;;;;;10.65;3.15;;;;;;;12.04;61.45;100742.06;4916732;29;20036;-81
2023/10/08 06:55:43;;;;;;;9.90;2.40;;;;;;;12.09;61.03;100748.22;4919346;29;20054;-80
2023/10/08 06:58:09;;;;;;;8.52;2.92;;;;;;;12.13;61.11;100742.06;4936005;29;20137;-79
2023/10/08 07:00:39;;;;;;;9.83;2.97;;;;;;;12.18;61.14;100747.31;4935465;29;20031;-81
2023/10/08 07:03:10;;;;;;;9.13;2.65;;;;;;;12.18;61.36;100753.47;4918521;29;20481;-79
2023/10/08 07:05:36;;;;;;;9.73;2.92;;;;;;;12.21;61.53;100755.22;4912602;29;20115;-78
2023/10/08 07:08:06;;;;;;;11.35;3.05;;;;;;;12.27;61.38;100754.31;4915470;29;20040;-79
2023/10/08 07:10:34;;;;;;;15.10;3.10;;;;;;;12.32;61.33;100756.06;4898641;29;20412;-78
2023/10/08 07:13:00;;;;;;;10.23;3.13;;;;;;;12.38;61.77;100762.19;4916448;29;20076;-79
2023/10/08 07:15:26;;;;;;;14.50;3.45;;;;;;;12.49;61.27;100763.06;4916108;29;20054;-79
2023/10/08 07:17:52;;;;;;;9.75;3.00;;;;;;;12.64;61.22;100760.31;4915796;29;20112;-80
2023/10/08 07:20:22;;;;;;;10.73;2.90;;;;;;;12.89;60.70;100762.84;4916353;29;20522;-78
2023/10/08 07:22:54;;;;;;;12.23;3.40;;;;;;;13.07;60.54;100761.88;4914288;29;20033;-79
2023/10/08 07:25:22;;;;;;;10.38;3.03;;;;;;;13.38;59.90;100757.25;4914117;29;20052;-78
2023/10/08 07:27:48;;;;;;;9.07;2.78;;;;;;;13.67;59.16;100751.75;4914274;29;20120;-80
2023/10/08 07:30:26;;;;;;;10.60;3.50;;;;;;;13.88;59.98;100749.81;4914061;29;20077;-79
2023/10/08 07:32:54;;;;;;;10.77;3.63;;;;;;;14.00;59.88;100757.59;4896741;29;20139;-80
2023/10/08 07:37:46;;;;;;;13.05;3.60;;;;;;;14.10;60.20;100757.50;4904803;29;20021;-79
2023/10/08 07:40:13;;;;;;;9.80;3.33;;;;;;;14.28;59.36;100759.94;4896637;29;20498;-79
2023/10/08 07:42:38;;;;;;;10.95;3.17;;;;;;;14.48;58.93;100758.84;4896536;29;20108;-80
2023/10/08 07:45:04;;;;;;;9.63;3.03;;;;;;;14.68;58.58;100749.75;4934615;29;20132;-80
2023/10/08 07:47:30;;;;;;;11.73;2.85;;;;;;;14.87;58.46;100751.28;4931321;29;20035;-80
2023/10/08 07:49:56;;;;;;;8.37;2.90;;;;;;;14.98;58.44;100761.75;4915360;29;20028;-81
2023/10/08 07:52:22;;;;;;;7.67;2.53;;;;;;;15.17;57.46;100754.38;4915233;29;20856;-79
2023/10/08 07:54:48;;;;;;;8.05;3.00;;;;;;;15.33;57.45;100751.50;4914758;29;20032;-81
2023/10/08 07:57:18;;;;;;;10.40;2.77;;;;;;;15.50;56.84;100753.88;4919816;29;20100;-81
2023/10/08 07:59:48;;;;;;;8.65;2.50;;;;;;;15.71;56.55;100747.31;4915363;29;20644;-81
2023/10/08 08:02:17;;;;;;;8.25;2.72;;;;;;;15.85;56.34;100748.84;4915096;29;20055;-81
2023/10/08 08:04:45;;;;;;;8.05;2.60;;;;;;;16.01;55.96;100746.81;4915562;29;20028;-82
2023/10/08 08:07:20;;;;;;;9.50;2.67;;;;;;;16.17;55.77;100750.06;4916375;29;20040;-81
2023/10/08 08:09:59;;;;;;;8.80;2.30;;;;;;;16.38;55.66;100751.41;4916578;29;20032;-82
2023/10/08 08:12:27;;;;;;;7.47;2.53;;;;;;;16.62;55.12;100747.38;4913909;29;20039;-76
2023/10/08 08:14:54;;;;;;;7.05;2.63;;;;;;;16.76;54.75;100751.53;4916733;29;20032;-83
2023/10/08 08:17:23;;;;;;;7.70;2.50;;;;;;;16.82;54.73;100759.34;4920896;29;20119;-80
2023/10/08 08:19:50;;;;;;;9.50;2.92;;;;;;;16.95;54.68;100759.94;4914982;29;20040;-81
2023/10/08 08:22:21;;;;;;;8.50;2.77;;;;;;;17.11;54.46;100755.19;4915544;29;20096;-81
2023/10/08 08:24:48;;;;;;;12.65;3.00;;;;;;;17.38;54.24;100758.09;4914498;29;20687;-78
2023/10/08 08:27:23;;;;;;;8.48;3.10;;;;;;;17.59;53.51;100751.34;4911536;29;20045;-82
2023/10/08 08:29:55;;;;;;;7.47;2.80;;;;;;;17.78;53.10;100750.88;4912374;29;20485;-77
2023/10/08 08:32:21;;;;;;;8.98;2.67;;;;;;;17.92;53.01;100753.16;4914612;29;20520;-81
2023/10/08 08:34:50;;;;;;;9.03;2.80;;;;;;;18.04;52.49;100752.88;4914765;29;20147;-80
2023/10/08 08:37:16;;;;;;;8.80;2.65;;;;;;;18.22;52.21;100747.97;4914784;29;20038;-81
2023/10/08 08:39:42;;;;;;;7.45;2.83;;;;;;;18.37;52.40;100743.97;4916724;29;20674;-78
2023/10/08 08:42:08;;;;;;;8.27;2.80;;;;;;;18.49;52.12;100743.59;4914141;29;20111;-78
2023/10/08 08:44:43;;;;;;;8.80;3.00;;;;;;;18.65;51.89;100743.16;4914300;29;20065;-81
2023/10/08 08:47:14;;;;;;;8.77;2.60;;;;;;;18.89;51.38;100746.84;4911398;29;20067;-75
2023/10/08 08:49:42;;;;;;;10.73;3.05;;;;;;;19.04;51.43;100740.19;4915349;29;20028;-84
2023/10/08 08:52:08;;;;;;;10.17;2.83;;;;;;;19.29;50.72;100738.53;4914023;29;20127;-83
2023/10/08 08:54:36;;;;;;;9.35;2.97;;;;;;;19.49;50.61;100735.19;4914298;29;20039;-81
2023/10/08 08:57:04;;;;;;;7.85;2.72;;;;;;;19.72;50.30;100737.09;4927973;29;20036;-79
2023/10/08 08:59:30;;;;;;;10.10;2.85;;;;;;;19.97;49.76;100736.25;4926295;29;20549;-85
2023/10/08 09:02:00;;;;;;;9.50;2.30;;;;;;;20.19;49.92;100735.47;4915335;29;20496;-79
2023/10/08 09:04:30;;;;;;;11.33;3.00;;;;;;;20.39;49.08;100728.53;4916908;29;20144;-77
2023/10/08 09:06:57;;;;;;;7.78;2.60;;;;;;;20.57;48.77;100730.47;4915605;29;20028;-78
2023/10/08 09:09:22;;;;;;;8.55;2.88;;;;;;;20.74;48.75;100728.94;4899859;29;20055;-85
2023/10/08 09:11:51;;;;;;;10.43;2.90;;;;;;;20.90;48.54;100730.13;4897873;29;20556;-80
2023/10/08 09:14:25;;;;;;;9.48;3.00;;;;;;;21.11;47.98;100724.84;4913639;29;20036;-83
2023/10/08 09:16:51;;;;;;;10.55;3.10;;;;;;;21.33;47.42;100715.91;4913956;29;20040;-83
2023/10/08 09:19:22;;;;;;;8.38;2.42;;;;;;;21.46;47.15;100717.13;4913830;29;20114;-83
2023/10/08 09:22:05;;;;;;;7.83;2.70;;;;;;;21.58;46.98;100712.16;4914477;29;20032;-81
2023/10/08 09:24:33;;;;;;;8.43;2.97;;;;;;;21.85;46.74;100714.66;4914123;29;20047;-83
2023/10/08 09:26:59;;;;;;;10.18;2.85;;;;;;;22.03;46.38;100703.06;4913823;29;20035;-84
2023/10/08 09:29:26;;;;;;;8.40;3.20;;;;;;;22.17;45.81;100705.13;4914305;29;20039;-84
2023/10/08 09:31:59;;;;;;;8.43;3.13;;;;;;;22.26;45.06;100701.16;4913265;29;20044;-82
2023/10/08 09:34:31;;;;;;;14.37;3.13;;;;;;;22.34;45.41;100707.06;4913997;29;20040;-80
2023/10/08 09:36:59;;;;;;;7.35;2.63;;;;;;;22.51;45.36;100698.25;4914353;29;20036;-80
2023/10/08 09:39:28;;;;;;;11.25;3.17;;;;;;;22.80;44.58;100697.81;4913103;29;20031;-81
2023/10/08 09:41:54;;;;;;;11.25;2.90;;;;;;;22.97;44.36;100693.41;4912930;29;20389;-82
2023/10/08 09:44:24;;;;;;;10.43;3.38;;;;;;;23.14;44.33;100692.56;4925888;29;20027;-79
2023/10/08 09:46:54;;;;;;;10.43;2.67;;;;;;;23.26;44.41;100681.25;4931186;29;20027;-79
2023/10/08 09:49:38;;;;;;;6.70;3.00;;;;;;;23.45;43.94;100683.84;4913307;29;20046;-77
2023/10/08 09:52:07;;;;;;;12.90;2.80;;;;;;;23.72;42.70;100674.44;4914518;29;20035;-82
2023/10/08 09:54:53;;;;;;;9.35;2.83;;;;;;;23.88;39.74;100675.38;4930423;29;20038;-80
2023/10/08 09:57:20;;;;;;;11.57;2.72;;;;;;;24.16;39.91;100675.69;4913144;29;20036;-82
2023/10/08 09:59:48;;;;;;;8.80;2.60;;;;;;;24.22;39.85;100673.56;4911226;29;20107;-82
2023/10/08 10:02:15;;;;;;;8.35;2.72;;;;;;;24.47;38.95;100658.72;4894473;29;20028;-81
2023/10/08 10:04:44;;;;;;;9.00;2.90;;;;;;;24.63;38.22;100661.41;4911585;29;20036;-81
2023/10/08 10:07:14;;;;;;;10.15;3.00;;;;;;;24.83;37.25;100661.25;4911391;29;20428;-81
2023/10/08 10:09:44;;;;;;;8.70;2.67;;;;;;;24.94;38.09;100658.81;4911346;29;20496;-82
2023/10/08 10:12:11;;;;;;;9.80;2.60;;;;;;;25.08;37.75;100655.31;4911478;29;20035;-80
2023/10/08 10:14:46;;;;;;;7.90;2.47;;;;;;;25.25;37.69;100657.00;4910473;29;20042;-81
2023/10/08 10:17:28;;;;;;;10.65;2.92;;;;;;;25.34;37.22;100652.88;4910000;29;20035;-79
2023/10/08 10:19:59;;;;;;;7.57;2.60;;;;;;;25.62;36.34;100648.53;4909568;29;20032;-82
2023/10/08 10:22:33;;;;;;;8.52;2.47;;;;;;;25.73;35.90;100639.78;4911743;29;20447;-82
2023/10/08 10:25:14;;;;;;;8.03;3.00;;;;;;;25.92;35.68;100647.59;4911158;29;20024;-80
2023/10/08 10:28:04;;;;;;;10.50;2.97;;;;;;;25.93;35.41;100643.94;4893333;29;20055;-82
2023/10/08 10:30:29;;;;;;;11.10;3.17;;;;;;;26.25;34.34;100637.47;4894633;29;20028;-83
2023/10/08 10:32:59;;;;;;;7.60;2.63;;;;;;;26.39;33.95;100641.97;4893930;29;20570;-80
2023/10/08 10:35:27;;;;;;;8.27;2.43;;;;;;;26.48;34.19;100625.19;4894755;29;20039;-81
2023/10/08 10:37:55;;;;;;;8.18;3.30;;;;;;;26.62;34.10;100635.94;4894075;29;20024;-82
2023/10/08 10:40:39;;;;;;;6.93;2.58;;;;;;;26.64;34.51;100631.31;4894049;29;20116;-78
2023/10/08 10:43:09;;;;;;;9.25;2.72;;;;;;;26.87;33.80;100630.78;4902319;29;20089;-81
2023/10/08 10:45:42;;;;;;;10.18;4.30;;;;;;;27.00;33.86;100634.38;4924544;29;20028;-80
2023/10/08 10:53:31;;;;;;;8.77;3.47;;;;;;;27.44;31.43;100629.63;4912851;29;20050;-80
2023/10/08 10:56:09;;;;;;;10.60;3.30;;;;;;;27.50;31.43;100623.78;4917803;29;20024;-79
2023/10/08 10:58:41;;;;;;;10.13;3.00;;;;;;;27.48;31.58;100617.59;4931569;29;20028;-82
2023/10/08 11:01:07;;;;;;;7.33;2.53;;;;;;;27.61;31.52;100619.47;4932126;29;20031;-79
2023/10/08 11:03:34;;;;;;;7.90;2.90;;;;;;;27.71;31.26;100623.25;4925087;29;20107;-81
2023/10/08 11:06:05;;;;;;;10.32;3.25;;;;;;;27.82;31.04;100616.22;4912556;29;20033;-81
2023/10/08 11:08:34;;;;;;;9.43;3.10;;;;;;;28.01;30.76;100624.75;4912758;29;20404;-81
2023/10/08 11:11:05;;;;;;;10.13;3.10;;;;;;;28.13;30.53;100619.44;4913011;29;20036;-80
2023/10/08 11:13:37;;;;;;;10.30;2.90;;;;;;;28.22;30.25;100614.25;4912759;29;20024;-83
2023/10/08 11:16:05;;;;;;;9.77;2.90;;;;;;;28.35;29.83;100613.31;4906580;29;20564;-81
2023/10/08 11:18:32;;;;;;;8.55;3.05;;;;;;;28.48;29.82;100607.84;4908747;29;20028;-83
2023/10/08 11:21:23;;;;;;;7.40;2.67;;;;;;;28.42;30.21;100608.31;4912409;29;20142;-81
2023/10/08 11:23:55;;;;;;;7.32;3.00;;;;;;;28.55;30.46;100611.84;4911971;29;20063;-81
2023/10/08 11:26:31;;;;;;;7.50;3.13;;;;;;;28.58;30.05;100610.75;4911399;29;20028;-80
2023/10/08 11:29:02;;;;;;;8.85;2.90;;;;;;;28.63;29.87;100612.16;4911277;29;20047;-81
2023/10/08 11:31:29;;;;;;;7.82;2.53;;;;;;;28.68;29.82;100597.38;4914634;29;20036;-81
2023/10/08 11:34:08;;;;;;;8.15;2.67;;;;;;;28.74;30.31;100599.63;4915338;29;20048;-80
2023/10/08 11:36:43;;;;;;;9.10;3.47;;;;;;;28.98;29.32;100598.75;4915831;29;20128;-82
2023/10/08 11:39:21;;;;;;;9.30;3.00;;;;;;;29.07;28.98;100598.06;4915260;29;20354;-80
2023/10/08 11:42:16;;;;;;;7.60;3.03;;;;;;;29.05;29.34;100600.00;4915585;29;20028;-81
2023/10/08 11:44:43;;;;;;;7.07;3.13;;;;;;;29.22;29.08;100583.28;4926219;29;20040;-81
2023/10/08 11:47:12;;;;;;;6.95;2.97;;;;;;;29.34;29.44;100583.34;4915058;29;20103;-80
2023/10/08 11:49:46;;;;;;;7.78;3.20;;;;;;;29.47;29.01;100572.41;4914594;29;20047;-81
2023/10/08 11:52:15;;;;;;;8.43;3.40;;;;;;;29.50;28.88;100572.16;4915865;29;20028;-82
2023/10/08 11:54:42;;;;;;;8.43;3.10;;;;;;;29.60;28.58;100566.88;4915642;29;20028;-80
2023/10/08 11:57:09;;;;;;;8.75;3.08;;;;;;;29.63;28.85;100574.75;4930146;29;20024;-79
2023/10/08 11:59:39;;;;;;;8.68;3.08;;;;;;;29.64;28.17;100558.34;4934473;29;20071;-84
2023/10/08 12:02:06;;;;;;;7.85;2.97;;;;;;;29.70;28.49;100553.44;4927346;29;20122;-83
2023/10/08 12:04:32;;;;;;;7.53;3.23;;;;;;;29.71;28.38;100553.28;4915399;29;20024;-85
2023/10/08 12:07:02;;;;;;;9.90;3.30;;;;;;;29.72;28.03;100551.44;4915705;29;20036;-81
2023/10/08 12:09:28;;;;;;;9.68;3.45;;;;;;;29.71;28.18;100555.16;4915576;29;20043;-81
2023/10/08 12:11:54;;;;;;;8.87;3.40;;;;;;;29.70;27.93;100551.56;4915033;29;20592;-82
2023/10/08 12:14:19;;;;;;;7.10;3.10;;;;;;;29.62;27.76;100548.59;4900527;29;20439;-82
2023/10/08 12:16:45;;;;;;;8.37;3.37;;;;;;;29.42;28.17;100542.91;4896405;29;20065;-81
2023/10/08 12:19:17;;;;;;;8.02;3.22;;;;;;;29.25;28.49;100540.66;4902661;29;20103;-83
2023/10/08 12:21:47;;;;;;;8.18;3.28;;;;;;;29.08;28.72;100535.56;4911818;29;20039;-85
2023/10/08 12:24:13;;;;;;;7.78;3.15;;;;;;;28.93;28.47;100531.34;4914897;29;20028;-82
2023/10/08 12:26:45;;;;;;;7.57;2.78;;;;;;;28.83;28.31;100531.22;4902526;29;20056;-82
2023/10/08 12:29:14;;;;;;;9.43;2.73;;;;;;;28.81;28.58;100530.44;4913137;29;20069;-82
2023/10/08 12:31:40;;;;;;;6.95;3.00;;;;;;;28.82;28.51;100532.19;4914201;29;20091;-82
2023/10/08 12:34:06;;;;;;;8.00;2.88;;;;;;;28.81;28.68;100525.00;4914094;29;20155;-81